Buoy 41910

sailwx.info

Track history (hours):
 
Tides and Currents Weather Stations Pressure Air Temp Water Temp Dewpoint Dewpoint Depression Visibility Wind Speed Wind Dir Waves Ship Positions

Drifting buoy 41910

Last reported at 2014-Nov-22 09:51 UTC. Time now 2014-Dec-21 18:44 UTC.
Position N 31°04' W 055°01'.
Warning: this ship's position is 29 days out of date.

Date/timePositionNaut miles runAvg speedWind from/ knotsBaromVisibWave heightAir tempDewpointWater temp
2014-Nov-22 09:51N 31°04' W 055°01'0 0.0
2014-Nov-22 08:14N 31°04' W 055°01'2 0.1 28.1
2014-Nov-21 21:39N 31°03' W 055°00'0 0.0 24.9
2014-Nov-21 21:26N 31°03' W 055°00'0 0.0
2014-Nov-21 19:50N 31°03' W 055°00'0 0.0 25.0
2014-Nov-21 18:07N 31°03' W 055°00'1 0.1 25.0
2014-Nov-21 10:19N 31°03' W 055°01'0 0.0 24.9
2014-Nov-21 10:05N 31°03' W 055°01'239.1
2014-Nov-21 10:02N 31°02' W 054°59'2 4.3 24.9
2014-Nov-21 09:35N 31°03' W 055°01'2 2.0 24.9
2014-Nov-21 08:37N 31°02' W 054°59'0 0.0 24.9
2014-Nov-21 08:26N 31°02' W 054°59'4 2.4 24.9
2014-Nov-21 06:44N 31°04' W 054°55'0 0.0 25.0
2014-Nov-20 22:30N 31°04' W 054°55'0 0.0 25.0
2014-Nov-20 22:04N 31°04' W 054°55'0 0.0 25.0
2014-Nov-20 22:01N 31°04' W 054°55'0 0.7 25.0
2014-Nov-20 21:37N 31°03' W 054°54'0 0.2
2014-Nov-20 20:25N 31°04' W 054°55'1 1.4 25.0
2014-Nov-20 20:03N 31°04' W 054°54'1 0.4 25.0
2014-Nov-20 18:42N 31°04' W 054°55'0 0.0
2014-Nov-20 18:21N 31°04' W 054°55'2 0.3 25.0
2014-Nov-20 10:42N 31°05' W 054°53'0 0.0 24.9
2014-Nov-20 09:06N 31°05' W 054°53'111.8 24.9
2014-Nov-20 09:02N 31°05' W 054°53'0 0.0 24.9
2014-Nov-20 08:38N 31°05' W 054°53'0 0.0 24.9
2014-Nov-20 08:32N 31°05' W 054°53'0 0.0 24.9
2014-Nov-20 07:24N 31°05' W 054°53'0 0.0 24.9
2014-Nov-20 06:57N 31°05' W 054°53'3 0.3 24.9
2014-Nov-19 22:25N 31°03' W 054°51'0 0.2
2014-Nov-19 20:52N 31°03' W 054°52'1 0.8 25.0
2014-Nov-19 20:11N 31°03' W 054°51'1 0.5 25.0
2014-Nov-19 19:08N 31°03' W 054°50'0 0.0 25.0
2014-Nov-19 18:29N 31°03' W 054°50'3 0.3 25.0
2014-Nov-19 10:27N 31°04' W 054°48'0 0.2 25.0
2014-Nov-19 09:25N 31°04' W 054°47'0 0.0 25.0
2014-Nov-19 08:52N 31°04' W 054°47'1 7.7 25.0
2014-Nov-19 08:48N 31°04' W 054°48'110.3 25.0
2014-Nov-19 08:45N 31°04' W 054°47'1 0.7 25.0
2014-Nov-19 07:51N 31°04' W 054°47'1 0.7 25.0
2014-Nov-19 07:07N 31°04' W 054°47'4 0.4 25.0
2014-Nov-18 21:15N 31°03' W 054°42'0 0.0 25.1
2014-Nov-18 20:27N 31°03' W 054°42'1 0.6 25.1
2014-Nov-18 19:36N 31°03' W 054°41'1 0.7 25.1
2014-Nov-18 18:45N 31°04' W 054°41'3 0.6 25.1
2014-Nov-18 14:06N 31°04' W 054°38'0 0.1 25.1
2014-Nov-18 10:38N 31°04' W 054°38'0 0.0 25.1
2014-Nov-18 09:59N 31°04' W 054°38'1 7.7 25.1
2014-Nov-18 09:55N 31°04' W 054°38'1 0.9 25.1
2014-Nov-18 09:01N 31°04' W 054°38'546.6 25.1
2014-Nov-18 08:55N 31°04' W 054°32'1 0.0 25.1
2014-Nov-17 20:37N 31°04' W 054°32'1 1.2 25.2
2014-Nov-17 19:58N 31°04' W 054°32'1 0.7 25.2
2014-Nov-17 18:54N 31°04' W 054°32'4 0.4 25.2
2014-Nov-17 10:18N 31°05' W 054°28'0 0.0 25.2
2014-Nov-17 09:12N 31°05' W 054°28'1 0.5 25.2
2014-Nov-17 07:32N 31°05' W 054°27'337.7 25.2
2014-Nov-17 07:27N 31°06' W 054°23'0 0.0 25.2
2014-Nov-16 22:50N 31°06' W 054°23'1 0.6 25.3
2014-Nov-16 22:00N 31°06' W 054°23'0 0.0 25.3
2014-Nov-16 20:44N 31°06' W 054°23'0 0.0 25.3
2014-Nov-16 20:26N 31°06' W 054°23'1 0.6 25.3
2014-Nov-16 19:07N 31°07' W 054°22'3 7.6 25.4
2014-Nov-16 18:43N 31°10' W 054°22'0 0.0 25.4
2014-Nov-16 10:40N 31°10' W 054°22'0 0.0 25.3
2014-Nov-16 09:28N 31°10' W 054°22'0 0.0 25.3
2014-Nov-16 09:22N 31°10' W 054°22'0 0.0 25.3
2014-Nov-16 09:19N 31°10' W 054°22'1 2.1 25.3
2014-Nov-16 09:02N 31°10' W 054°22'3 1.9 25.3
2014-Nov-16 07:39N 31°13' W 054°23'0 0.0 25.3
2014-Nov-16 07:24N 31°13' W 054°23'0 0.0 25.3
2014-Nov-15 21:00N 31°13' W 054°23'0 0.0 25.4
2014-Nov-15 20:52N 31°13' W 054°23'0 0.0 25.4
2014-Nov-15 20:49N 31°13' W 054°23'1 0.3 25.4
2014-Nov-15 19:20N 31°13' W 054°23'218.7 25.4
2014-Nov-15 19:14N 31°14' W 054°23'0 0.0 25.4
2014-Nov-15 19:06N 31°14' W 054°23'0 0.0 25.4
2014-Nov-15 11:08N 31°14' W 054°23'0 0.0 25.3
2014-Nov-15 09:36N 31°14' W 054°23'0 0.0 25.3
2014-Nov-15 09:35N 31°14' W 054°23'112.0 25.3
2014-Nov-15 09:29N 31°16' W 054°23'0 0.0 25.3
2014-Nov-15 09:27N 31°16' W 054°23'0 0.0 25.3
2014-Nov-15 07:55N 31°16' W 054°23'112.3 25.3
2014-Nov-15 07:50N 31°16' W 054°24'117.5 25.3
2014-Nov-15 07:47N 31°15' W 054°23'1 0.1 25.3
2014-Nov-14 21:14N 31°16' W 054°24'1 4.4 25.4
2014-Nov-14 21:07N 31°16' W 054°25'1 0.3 25.4
2014-Nov-14 19:33N 31°16' W 054°24'1 0.5 25.4
2014-Nov-14 17:48N 31°16' W 054°23'3 1.6 25.4
2014-Nov-14 15:49N 31°19' W 054°25'0 0.0 25.4
2014-Nov-14 09:56N 31°19' W 054°25'0 0.0 25.3
2014-Nov-14 09:51N 31°19' W 054°25'0 0.0 25.3
2014-Nov-14 09:45N 31°19' W 054°25'1 7.7 25.3
2014-Nov-14 09:41N 31°19' W 054°25'0 0.0 25.3
2014-Nov-14 08:15N 31°19' W 054°25'0 0.0 25.3
2014-Nov-14 08:05N 31°19' W 054°25'1 0.1 25.3
2014-Nov-13 21:37N 31°20' W 054°26'0 0.0 25.4
2014-Nov-13 21:20N 31°20' W 054°26'0 0.0 25.4
2014-Nov-13 19:59N 31°20' W 054°26'0 0.0 25.4
2014-Nov-13 19:58N 31°20' W 054°26'1 7.2 25.4
2014-Nov-13 19:53N 31°20' W 054°26'0 0.0 25.4
2014-Nov-13 19:43N 31°20' W 054°26'2 1.1 25.4
2014-Nov-13 17:59N 31°22' W 054°28'0 0.0 25.4
2014-Nov-13 10:22N 31°22' W 054°28'0 0.0 25.4
2014-Nov-13 10:16N 31°22' W 054°28'0 0.0 25.4
2014-Nov-13 10:00N 31°22' W 054°28'1 6.1 25.4
2014-Nov-13 09:55N 31°22' W 054°28'0 0.0 25.4
2014-Nov-13 08:15N 31°22' W 054°28'2 1.0 25.4
2014-Nov-13 06:34N 31°21' W 054°26'0 0.0 25.4
2014-Nov-13 06:13N 31°21' W 054°26'0 0.0 25.4
2014-Nov-12 22:03N 31°21' W 054°26'0 0.0 25.4
2014-Nov-12 21:32N 31°21' W 054°26'1 0.5 25.4
2014-Nov-12 20:24N 31°21' W 054°26'0 0.4 25.5
2014-Nov-12 19:51N 31°22' W 054°26'1 1.0 25.5
2014-Nov-12 18:39N 31°22' W 054°28'0 0.0 25.5
2014-Nov-12 18:12N 31°22' W 054°28'2 0.2 25.5
2014-Nov-12 10:44N 31°23' W 054°29'0 0.0
2014-Nov-12 10:08N 31°23' W 054°29'112.0 25.4
2014-Nov-12 10:05N 31°22' W 054°29'   25.4
Track history (hours):
 
Tides and Currents Weather Stations Pressure Air Temp Water Temp Dewpoint Dewpoint Depression Visibility Wind Speed Wind Dir Waves Ship Positions

Drifting buoy 41910

Last reported at 2014-Nov-22 09:51 UTC. Time now 2014-Dec-21 18:44 UTC.
Position N 31°04' W 055°01'.
Warning: this ship's position is 29 days out of date.

Date/timePositionNaut miles runAvg speedWind from/ knotsBaromVisibWave heightAir tempDewpointWater temp
2014-Nov-22 09:51N 31°04' W 055°01'0 0.0
2014-Nov-22 08:14N 31°04' W 055°01'2 0.1 28.1
2014-Nov-21 21:39N 31°03' W 055°00'0 0.0 24.9
2014-Nov-21 21:26N 31°03' W 055°00'0 0.0
2014-Nov-21 19:50N 31°03' W 055°00'0 0.0 25.0
2014-Nov-21 18:07N 31°03' W 055°00'1 0.1 25.0
2014-Nov-21 10:19N 31°03' W 055°01'0 0.0 24.9
2014-Nov-21 10:05N 31°03' W 055°01'239.1
2014-Nov-21 10:02N 31°02' W 054°59'2 4.3 24.9
2014-Nov-21 09:35N 31°03' W 055°01'2 2.0 24.9
2014-Nov-21 08:37N 31°02' W 054°59'0 0.0 24.9
2014-Nov-21 08:26N 31°02' W 054°59'4 2.4 24.9
2014-Nov-21 06:44N 31°04' W 054°55'0 0.0 25.0
2014-Nov-20 22:30N 31°04' W 054°55'0 0.0 25.0
2014-Nov-20 22:04N 31°04' W 054°55'0 0.0 25.0
2014-Nov-20 22:01N 31°04' W 054°55'0 0.7 25.0
2014-Nov-20 21:37N 31°03' W 054°54'0 0.2
2014-Nov-20 20:25N 31°04' W 054°55'1 1.4 25.0
2014-Nov-20 20:03N 31°04' W 054°54'1 0.4 25.0
2014-Nov-20 18:42N 31°04' W 054°55'0 0.0
2014-Nov-20 18:21N 31°04' W 054°55'2 0.3 25.0
2014-Nov-20 10:42N 31°05' W 054°53'0 0.0 24.9
2014-Nov-20 09:06N 31°05' W 054°53'111.8 24.9
2014-Nov-20 09:02N 31°05' W 054°53'0 0.0 24.9
2014-Nov-20 08:38N 31°05' W 054°53'0 0.0 24.9
2014-Nov-20 08:32N 31°05' W 054°53'0 0.0 24.9
2014-Nov-20 07:24N 31°05' W 054°53'0 0.0 24.9
2014-Nov-20 06:57N 31°05' W 054°53'3 0.3 24.9
2014-Nov-19 22:25N 31°03' W 054°51'0 0.2
2014-Nov-19 20:52N 31°03' W 054°52'1 0.8 25.0
2014-Nov-19 20:11N 31°03' W 054°51'1 0.5 25.0
2014-Nov-19 19:08N 31°03' W 054°50'0 0.0 25.0
2014-Nov-19 18:29N 31°03' W 054°50'3 0.3 25.0
2014-Nov-19 10:27N 31°04' W 054°48'0 0.2 25.0
2014-Nov-19 09:25N 31°04' W 054°47'0 0.0 25.0
2014-Nov-19 08:52N 31°04' W 054°47'1 7.7 25.0
2014-Nov-19 08:48N 31°04' W 054°48'110.3 25.0
2014-Nov-19 08:45N 31°04' W 054°47'1 0.7 25.0
2014-Nov-19 07:51N 31°04' W 054°47'1 0.7 25.0
2014-Nov-19 07:07N 31°04' W 054°47'4 0.4 25.0
2014-Nov-18 21:15N 31°03' W 054°42'0 0.0 25.1
2014-Nov-18 20:27N 31°03' W 054°42'1 0.6 25.1
2014-Nov-18 19:36N 31°03' W 054°41'1 0.7 25.1
2014-Nov-18 18:45N 31°04' W 054°41'3 0.6 25.1
2014-Nov-18 14:06N 31°04' W 054°38'0 0.1 25.1
2014-Nov-18 10:38N 31°04' W 054°38'0 0.0 25.1
2014-Nov-18 09:59N 31°04' W 054°38'1 7.7 25.1
2014-Nov-18 09:55N 31°04' W 054°38'1 0.9 25.1
2014-Nov-18 09:01N 31°04' W 054°38'546.6 25.1
2014-Nov-18 08:55N 31°04' W 054°32'1 0.0 25.1
2014-Nov-17 20:37N 31°04' W 054°32'1 1.2 25.2
2014-Nov-17 19:58N 31°04' W 054°32'1 0.7 25.2
2014-Nov-17 18:54N 31°04' W 054°32'4 0.4 25.2
2014-Nov-17 10:18N 31°05' W 054°28'0 0.0 25.2
2014-Nov-17 09:12N 31°05' W 054°28'1 0.5 25.2
2014-Nov-17 07:32N 31°05' W 054°27'337.7 25.2
2014-Nov-17 07:27N 31°06' W 054°23'0 0.0 25.2
2014-Nov-16 22:50N 31°06' W 054°23'1 0.6 25.3
2014-Nov-16 22:00N 31°06' W 054°23'0 0.0 25.3
2014-Nov-16 20:44N 31°06' W 054°23'0 0.0 25.3
2014-Nov-16 20:26N 31°06' W 054°23'1 0.6 25.3
2014-Nov-16 19:07N 31°07' W 054°22'3 7.6 25.4
2014-Nov-16 18:43N 31°10' W 054°22'0 0.0 25.4
2014-Nov-16 10:40N 31°10' W 054°22'0 0.0 25.3
2014-Nov-16 09:28N 31°10' W 054°22'0 0.0 25.3
2014-Nov-16 09:22N 31°10' W 054°22'0 0.0 25.3
2014-Nov-16 09:19N 31°10' W 054°22'1 2.1 25.3
2014-Nov-16 09:02N 31°10' W 054°22'3 1.9 25.3
2014-Nov-16 07:39N 31°13' W 054°23'0 0.0 25.3
2014-Nov-16 07:24N 31°13' W 054°23'0 0.0 25.3
2014-Nov-15 21:00N 31°13' W 054°23'0 0.0 25.4
2014-Nov-15 20:52N 31°13' W 054°23'0 0.0 25.4
2014-Nov-15 20:49N 31°13' W 054°23'1 0.3 25.4
2014-Nov-15 19:20N 31°13' W 054°23'218.7 25.4
2014-Nov-15 19:14N 31°14' W 054°23'0 0.0 25.4
2014-Nov-15 19:06N 31°14' W 054°23'0 0.0 25.4
2014-Nov-15 11:08N 31°14' W 054°23'0 0.0 25.3
2014-Nov-15 09:36N 31°14' W 054°23'0 0.0 25.3
2014-Nov-15 09:35N 31°14' W 054°23'112.0 25.3
2014-Nov-15 09:29N 31°16' W 054°23'0 0.0 25.3
2014-Nov-15 09:27N 31°16' W 054°23'0 0.0 25.3
2014-Nov-15 07:55N 31°16' W 054°23'112.3 25.3
2014-Nov-15 07:50N 31°16' W 054°24'117.5 25.3
2014-Nov-15 07:47N 31°15' W 054°23'1 0.1 25.3
2014-Nov-14 21:14N 31°16' W 054°24'1 4.4 25.4
2014-Nov-14 21:07N 31°16' W 054°25'1 0.3 25.4
2014-Nov-14 19:33N 31°16' W 054°24'1 0.5 25.4
2014-Nov-14 17:48N 31°16' W 054°23'3 1.6 25.4
2014-Nov-14 15:49N 31°19' W 054°25'0 0.0 25.4
2014-Nov-14 09:56N 31°19' W 054°25'0 0.0 25.3
2014-Nov-14 09:51N 31°19' W 054°25'0 0.0 25.3
2014-Nov-14 09:45N 31°19' W 054°25'1 7.7 25.3
2014-Nov-14 09:41N 31°19' W 054°25'0 0.0 25.3
2014-Nov-14 08:15N 31°19' W 054°25'0 0.0 25.3
2014-Nov-14 08:05N 31°19' W 054°25'1 0.1 25.3
2014-Nov-13 21:37N 31°20' W 054°26'0 0.0 25.4
2014-Nov-13 21:20N 31°20' W 054°26'0 0.0 25.4
2014-Nov-13 19:59N 31°20' W 054°26'0 0.0 25.4
2014-Nov-13 19:58N 31°20' W 054°26'1 7.2 25.4
2014-Nov-13 19:53N 31°20' W 054°26'0 0.0 25.4
2014-Nov-13 19:43N 31°20' W 054°26'2 1.1 25.4
2014-Nov-13 17:59N 31°22' W 054°28'0 0.0 25.4
2014-Nov-13 10:22N 31°22' W 054°28'0 0.0 25.4
2014-Nov-13 10:16N 31°22' W 054°28'0 0.0 25.4
2014-Nov-13 10:00N 31°22' W 054°28'1 6.1 25.4
2014-Nov-13 09:55N 31°22' W 054°28'0 0.0 25.4
2014-Nov-13 08:15N 31°22' W 054°28'2 1.0 25.4
2014-Nov-13 06:34N 31°21' W 054°26'0 0.0 25.4
2014-Nov-13 06:13N 31°21' W 054°26'0 0.0 25.4
2014-Nov-12 22:03N 31°21' W 054°26'0 0.0 25.4
2014-Nov-12 21:32N 31°21' W 054°26'1 0.5 25.4
2014-Nov-12 20:24N 31°21' W 054°26'0 0.4 25.5
2014-Nov-12 19:51N 31°22' W 054°26'1 1.0 25.5
2014-Nov-12 18:39N 31°22' W 054°28'0 0.0 25.5
2014-Nov-12 18:12N 31°22' W 054°28'2 0.2 25.5
2014-Nov-12 10:44N 31°23' W 054°29'0 0.0
2014-Nov-12 10:08N 31°23' W 054°29'112.0 25.4
2014-Nov-12 10:05N 31°22' W 054°29'   25.4

Dump ship's entire track history